Providence, Illinois
Current Conditions -  °F | °C
As of 9:50 AM on Thursday 27 Nov 2014 (Local Time) from KC75 Reporting Station
Light Snow Light Snow  
Wind Chill: -8°   Ceiling: 1700
Heat Index: -3°   Visibility: 4mi
Dew Point: -6°   Wind: 9mph
Humidity: 83%   Direction: 290°WNW
Pressure: 30.4"   Gusts: NA
Location:  41.2776°N, 89.5099°W
Report Text: KC75 271550Z AUTO 29008KT 4SM -SN OVC017 M03/M06 A3040 RMK AO2 T10321057
Loading
Personal Weather Stations






























Interactive Weather Map New forecast layout! Learn more

10-Day Weather Forecast

Advertisements
Track Severe Weather on mobile